createdAt,value
2018-10-15T00:00:18.255Z,20.10
2018-10-15T00:01:21.609Z,20.10
2018-10-15T00:02:25.059Z,20.10
2018-10-15T00:03:28.463Z,20.10
2018-10-15T00:04:31.888Z,20.10
2018-10-15T00:05:35.994Z,20.10
2018-10-15T00:06:39.389Z,20.10
2018-10-15T00:07:42.808Z,20.10
2018-10-15T00:08:46.216Z,20.10
2018-10-15T00:09:49.955Z,20.10
2018-10-15T00:10:53.344Z,20.10
2018-10-15T00:11:56.764Z,20.10
2018-10-15T00:13:00.158Z,20.10
2018-10-15T00:14:04.364Z,20.10
2018-10-15T00:15:19.496Z,20.10
2018-10-15T00:16:22.895Z,20.10
2018-10-15T00:17:26.294Z,20.10
2018-10-15T00:18:29.663Z,20.10
2018-10-15T00:19:33.039Z,20.10
2018-10-15T00:20:36.472Z,20.10
2018-10-15T00:21:39.851Z,20.10
2018-10-15T00:22:43.245Z,20.10
2018-10-15T00:23:46.606Z,20.10
2018-10-15T00:24:49.985Z,20.10
2018-10-15T00:25:53.393Z,20.10
2018-10-15T00:26:56.806Z,20.00
2018-10-15T00:28:00.183Z,20.00
2018-10-15T00:29:03.564Z,20.00
2018-10-15T00:30:07.777Z,20.10
2018-10-15T00:31:11.194Z,20.00
2018-10-15T00:32:14.610Z,20.00
2018-10-15T00:33:17.989Z,20.00
2018-10-15T00:34:21.383Z,20.00
2018-10-15T00:35:24.770Z,20.00
2018-10-15T00:36:28.211Z,20.00
2018-10-15T00:37:31.662Z,20.00
2018-10-15T00:38:35.054Z,20.00
2018-10-15T00:39:38.449Z,20.00
2018-10-15T00:40:41.847Z,20.00
2018-10-15T00:41:45.351Z,20.00
2018-10-15T00:42:48.841Z,20.00
2018-10-15T00:43:52.221Z,20.00
2018-10-15T00:44:55.792Z,20.00
2018-10-15T00:45:59.192Z,20.00
2018-10-15T00:47:02.586Z,20.00
2018-10-15T00:48:06.204Z,20.00
2018-10-15T00:49:09.767Z,20.00
2018-10-15T00:50:14.472Z,20.00
2018-10-15T00:51:17.852Z,20.00
2018-10-15T00:52:21.276Z,20.00
2018-10-15T00:53:24.680Z,20.00
2018-10-15T00:54:28.117Z,20.00
2018-10-15T00:55:31.508Z,20.00
2018-10-15T00:56:34.907Z,20.00
2018-10-15T00:57:38.908Z,20.00
2018-10-15T00:58:42.697Z,20.00
2018-10-15T00:59:46.085Z,20.00
2018-10-15T01:00:49.452Z,20.00
2018-10-15T01:01:52.853Z,20.00
2018-10-15T01:02:56.272Z,20.00
2018-10-15T01:03:59.720Z,20.00
2018-10-15T01:05:03.126Z,20.00
2018-10-15T01:06:06.705Z,20.00
2018-10-15T01:07:10.117Z,20.00
2018-10-15T01:08:13.518Z,20.00
2018-10-15T01:09:16.984Z,19.90
2018-10-15T01:10:20.372Z,20.00
2018-10-15T01:11:23.777Z,20.00
2018-10-15T01:12:27.180Z,20.00
2018-10-15T01:13:30.632Z,19.90
2018-10-15T01:14:34.034Z,19.90
2018-10-15T01:15:37.452Z,19.90
2018-10-15T01:16:40.890Z,19.90
2018-10-15T01:17:44.255Z,19.90
2018-10-15T01:18:47.664Z,19.90
2018-10-15T01:19:51.080Z,19.90
2018-10-15T01:20:54.491Z,19.90
2018-10-15T01:21:57.887Z,19.90
2018-10-15T01:23:01.461Z,19.90
2018-10-15T01:24:05.304Z,19.90
2018-10-15T01:25:10.925Z,19.90
2018-10-15T01:26:14.333Z,19.80
2018-10-15T01:27:17.716Z,19.80
2018-10-15T01:28:21.108Z,19.80
2018-10-15T01:29:24.536Z,19.80
2018-10-15T01:30:27.924Z,19.80
2018-10-15T01:31:31.328Z,19.80
2018-10-15T01:32:34.751Z,19.80
2018-10-15T01:33:38.127Z,19.80
2018-10-15T01:34:41.524Z,19.80
2018-10-15T01:35:44.978Z,19.80
2018-10-15T01:36:48.393Z,19.80
2018-10-15T01:37:51.830Z,19.70
2018-10-15T01:38:55.309Z,19.70
2018-10-15T01:39:58.766Z,19.70
2018-10-15T01:41:02.255Z,19.70
2018-10-15T01:42:05.675Z,19.70
2018-10-15T01:43:09.104Z,19.70
2018-10-15T01:44:13.238Z,19.70
2018-10-15T01:45:16.656Z,19.70
2018-10-15T01:46:20.569Z,19.70
2018-10-15T01:47:24.004Z,19.70
2018-10-15T01:48:27.484Z,19.70
2018-10-15T01:49:30.884Z,19.70
2018-10-15T01:50:34.549Z,19.70
2018-10-15T01:51:37.931Z,19.70
2018-10-15T01:52:41.352Z,19.60
2018-10-15T01:53:44.739Z,19.60
2018-10-15T01:54:48.155Z,19.60
2018-10-15T01:55:51.548Z,19.60
2018-10-15T01:56:54.947Z,19.60
2018-10-15T01:57:58.368Z,19.60
2018-10-15T01:59:01.749Z,19.60
2018-10-15T02:00:05.852Z,19.50
2018-10-15T02:01:09.421Z,19.50
2018-10-15T02:02:12.796Z,19.50
2018-10-15T02:03:16.190Z,19.50
2018-10-15T02:04:19.572Z,19.50
2018-10-15T02:05:22.998Z,19.50
2018-10-15T02:06:26.441Z,19.50
2018-10-15T02:07:29.861Z,19.50
2018-10-15T02:08:33.264Z,19.50
2018-10-15T02:09:36.646Z,19.50
2018-10-15T02:10:40.051Z,19.50
2018-10-15T02:11:43.452Z,19.50
2018-10-15T02:12:46.838Z,19.50
2018-10-15T02:13:50.234Z,19.50
2018-10-15T02:14:53.724Z,19.50
2018-10-15T02:15:57.221Z,19.50
2018-10-15T02:17:00.644Z,19.50
2018-10-15T02:18:04.057Z,19.50
2018-10-15T02:19:07.473Z,19.40
2018-10-15T02:20:10.974Z,19.40
2018-10-15T02:21:14.400Z,19.40
2018-10-15T02:22:17.789Z,19.40
2018-10-15T02:23:21.181Z,19.40
2018-10-15T02:24:24.570Z,19.40
2018-10-15T02:25:27.979Z,19.40
2018-10-15T02:26:31.383Z,19.40
2018-10-15T02:27:34.760Z,19.40
2018-10-15T02:28:38.181Z,19.40
2018-10-15T02:29:41.578Z,19.40
2018-10-15T02:30:44.970Z,19.40
2018-10-15T02:31:48.396Z,19.40
2018-10-15T02:32:51.829Z,19.40
2018-10-15T02:33:55.244Z,19.40
2018-10-15T02:34:58.625Z,19.40
2018-10-15T02:36:02.067Z,19.40
2018-10-15T02:37:05.668Z,19.40
2018-10-15T02:38:09.065Z,19.40
2018-10-15T02:39:13.454Z,19.40
2018-10-15T02:40:16.929Z,19.40
2018-10-15T02:41:20.313Z,19.40
2018-10-15T02:42:23.717Z,19.40
2018-10-15T02:43:27.105Z,19.40
2018-10-15T02:44:30.608Z,19.40
2018-10-15T02:45:34.065Z,19.40
2018-10-15T02:46:37.977Z,19.40
2018-10-15T02:47:41.369Z,19.40
2018-10-15T02:48:44.768Z,19.40
2018-10-15T02:49:48.200Z,19.40
2018-10-15T02:50:51.600Z,19.40
2018-10-15T02:51:55.003Z,19.40
2018-10-15T02:52:58.384Z,19.40
2018-10-15T02:54:01.783Z,19.40
2018-10-15T02:55:05.642Z,19.40
2018-10-15T02:56:09.041Z,19.40
2018-10-15T02:57:12.447Z,19.40
2018-10-15T02:58:15.857Z,19.40
2018-10-15T02:59:19.259Z,19.40
2018-10-15T03:00:22.666Z,19.40
2018-10-15T03:01:26.101Z,19.40
2018-10-15T03:02:29.836Z,19.40
2018-10-15T03:03:33.236Z,19.40
2018-10-15T03:04:36.644Z,19.40
2018-10-15T03:05:40.056Z,19.40
2018-10-15T03:06:43.448Z,19.40
2018-10-15T03:07:46.876Z,19.40
2018-10-15T03:08:50.377Z,19.30
2018-10-15T03:09:54.003Z,19.30
2018-10-15T03:10:57.400Z,19.30
2018-10-15T03:12:00.796Z,19.30
2018-10-15T03:13:04.215Z,19.30
2018-10-15T03:14:08.154Z,19.30
2018-10-15T03:15:11.877Z,19.30
2018-10-15T03:16:15.274Z,19.30
2018-10-15T03:17:18.683Z,19.30
2018-10-15T03:18:22.078Z,19.30
2018-10-15T03:19:25.487Z,19.30
2018-10-15T03:20:28.897Z,19.30
2018-10-15T03:21:32.331Z,19.30
2018-10-15T03:22:35.745Z,19.30
2018-10-15T03:23:39.111Z,19.30
2018-10-15T03:24:42.553Z,19.30
2018-10-15T03:25:45.978Z,19.30
2018-10-15T03:26:49.371Z,19.30
2018-10-15T03:27:52.760Z,19.30
2018-10-15T03:28:56.163Z,19.30
2018-10-15T03:29:59.584Z,19.30
2018-10-15T03:31:03.042Z,19.30
2018-10-15T03:32:06.472Z,19.30
2018-10-15T03:33:09.902Z,19.30
2018-10-15T03:34:13.341Z,19.30
2018-10-15T03:35:16.745Z,19.30
2018-10-15T03:36:20.143Z,19.30
2018-10-15T03:37:23.522Z,19.30
2018-10-15T03:38:26.975Z,19.30
2018-10-15T03:39:30.368Z,19.20
2018-10-15T03:40:33.800Z,19.30
2018-10-15T03:41:38.234Z,19.30
2018-10-15T03:42:41.631Z,19.30
2018-10-15T03:43:45.002Z,19.30
2018-10-15T03:44:48.361Z,19.30
2018-10-15T03:45:51.780Z,19.30
2018-10-15T03:46:55.200Z,19.30
2018-10-15T03:47:58.593Z,19.30
2018-10-15T03:49:02.036Z,19.30
2018-10-15T03:50:06.089Z,19.20
2018-10-15T03:51:09.469Z,19.20
2018-10-15T03:52:12.877Z,19.20
2018-10-15T03:53:16.269Z,19.20
2018-10-15T03:54:19.683Z,19.20
2018-10-15T03:55:23.065Z,19.20
2018-10-15T03:56:26.480Z,19.20
2018-10-15T03:57:29.868Z,19.20
2018-10-15T03:58:33.881Z,19.20
2018-10-15T03:59:37.388Z,19.20
2018-10-15T04:00:40.769Z,19.20
2018-10-15T04:01:44.213Z,19.20
2018-10-15T04:02:47.592Z,19.20
2018-10-15T04:03:51.001Z,19.20
2018-10-15T04:04:54.409Z,19.20
2018-10-15T04:05:57.823Z,19.20
2018-10-15T04:07:01.239Z,19.20
2018-10-15T04:08:04.818Z,19.20
2018-10-15T04:09:09.663Z,19.10
2018-10-15T04:10:13.078Z,19.20
2018-10-15T04:11:16.464Z,19.10
2018-10-15T04:12:19.860Z,19.10
2018-10-15T04:13:23.309Z,19.10
2018-10-15T04:14:26.725Z,19.10
2018-10-15T04:15:30.112Z,19.10
2018-10-15T04:16:33.526Z,19.10
2018-10-15T04:17:37.045Z,19.10
2018-10-15T04:18:40.529Z,19.10
2018-10-15T04:19:43.997Z,19.10
2018-10-15T04:20:47.412Z,19.10
2018-10-15T04:21:50.871Z,19.10
2018-10-15T04:22:54.304Z,19.10
2018-10-15T04:23:57.715Z,19.10
2018-10-15T04:25:01.085Z,19.10
2018-10-15T04:26:04.724Z,19.10
2018-10-15T04:27:08.175Z,19.10
2018-10-15T04:28:11.591Z,19.10
2018-10-15T04:29:14.979Z,19.00
2018-10-15T04:30:18.889Z,19.00
2018-10-15T04:31:22.286Z,19.00
2018-10-15T04:32:25.716Z,19.00
2018-10-15T04:33:29.105Z,19.00
2018-10-15T04:34:32.524Z,19.00
2018-10-15T04:35:35.901Z,19.00
2018-10-15T04:36:39.314Z,19.00
2018-10-15T04:37:42.823Z,18.90
2018-10-15T04:38:46.301Z,18.90
2018-10-15T04:39:49.683Z,18.90
2018-10-15T04:40:53.085Z,18.90
2018-10-15T04:41:56.503Z,18.90
2018-10-15T04:42:59.891Z,18.90
2018-10-15T04:44:03.274Z,18.90
2018-10-15T04:45:08.277Z,18.90
2018-10-15T04:46:11.643Z,18.90
2018-10-15T04:47:15.077Z,18.90
2018-10-15T04:48:18.453Z,18.90
2018-10-15T04:49:21.967Z,18.90
2018-10-15T04:50:25.292Z,18.90
2018-10-15T04:51:28.696Z,18.90
2018-10-15T04:52:32.112Z,18.90
2018-10-15T04:53:35.532Z,18.90
2018-10-15T04:54:38.960Z,18.90
2018-10-15T04:55:42.364Z,18.90
2018-10-15T04:56:45.741Z,18.90
2018-10-15T04:57:49.138Z,18.90
2018-10-15T04:58:52.519Z,18.90
2018-10-15T04:59:55.897Z,18.90
2018-10-15T05:00:59.276Z,18.90
2018-10-15T05:02:02.669Z,18.90
2018-10-15T05:03:06.088Z,18.90
2018-10-15T05:04:09.473Z,18.90
2018-10-15T05:05:13.633Z,18.90
2018-10-15T05:06:17.070Z,18.90
2018-10-15T05:07:20.449Z,18.90
2018-10-15T05:08:23.906Z,18.90
2018-10-15T05:09:27.322Z,18.90
2018-10-15T05:10:30.693Z,18.80
2018-10-15T05:11:34.091Z,18.80
2018-10-15T05:12:37.579Z,18.80
2018-10-15T05:13:41.003Z,18.80
2018-10-15T05:14:44.432Z,18.80
2018-10-15T05:15:47.825Z,18.80
2018-10-15T05:16:51.241Z,18.80
2018-10-15T05:17:54.653Z,18.80
2018-10-15T05:18:58.055Z,18.80
2018-10-15T05:20:01.437Z,18.80
2018-10-15T05:21:04.994Z,18.80
2018-10-15T05:22:08.278Z,18.80
2018-10-15T05:23:11.659Z,18.70
2018-10-15T05:24:15.063Z,18.70
2018-10-15T05:25:18.498Z,18.70
2018-10-15T05:26:21.900Z,18.70
2018-10-15T05:27:25.304Z,18.70
2018-10-15T05:28:28.804Z,18.70
2018-10-15T05:29:32.184Z,18.70
2018-10-15T05:30:35.702Z,18.70
2018-10-15T05:31:39.157Z,18.60
2018-10-15T05:32:42.546Z,18.60
2018-10-15T05:33:45.916Z,18.60
2018-10-15T05:34:49.297Z,18.60
2018-10-15T05:35:52.701Z,18.60
2018-10-15T05:36:56.103Z,18.60
2018-10-15T05:37:59.541Z,18.60
2018-10-15T05:39:03.156Z,18.60
2018-10-15T05:40:07.472Z,18.60
2018-10-15T05:41:11.067Z,18.60
2018-10-15T05:42:14.553Z,18.50
2018-10-15T05:43:20.577Z,18.60
2018-10-15T05:44:25.788Z,18.50
2018-10-15T05:45:29.187Z,18.50
2018-10-15T05:46:32.655Z,18.50
2018-10-15T05:47:36.094Z,18.50
2018-10-15T05:48:39.530Z,18.50
2018-10-15T05:49:42.945Z,18.50
2018-10-15T05:50:46.338Z,18.50
2018-10-15T05:51:49.929Z,18.50
2018-10-15T05:52:53.337Z,18.50
2018-10-15T05:53:56.759Z,18.50
2018-10-15T05:55:00.141Z,18.50
2018-10-15T05:56:03.558Z,18.50
2018-10-15T05:57:07.203Z,18.50
2018-10-15T05:58:10.596Z,18.50
2018-10-15T05:59:13.993Z,18.50
2018-10-15T06:00:17.438Z,18.40
2018-10-15T06:01:20.788Z,18.40
2018-10-15T06:02:24.309Z,18.40
2018-10-15T06:03:27.686Z,18.40
2018-10-15T06:04:31.085Z,18.40
2018-10-15T06:05:34.468Z,18.40
2018-10-15T06:06:38.667Z,18.40
2018-10-15T06:07:42.100Z,18.40
2018-10-15T06:08:45.516Z,18.40
2018-10-15T06:09:48.918Z,18.40
2018-10-15T06:10:52.286Z,18.40
2018-10-15T06:11:55.667Z,18.40
2018-10-15T06:12:59.163Z,18.40
2018-10-15T06:14:02.521Z,18.40
2018-10-15T06:15:07.243Z,18.40
2018-10-15T06:16:10.635Z,18.40
2018-10-15T06:17:14.039Z,18.40
2018-10-15T06:18:17.521Z,18.40
2018-10-15T06:19:20.884Z,18.40
2018-10-15T06:20:24.272Z,18.40
2018-10-15T06:21:27.682Z,18.40
2018-10-15T06:22:31.122Z,18.40
2018-10-15T06:23:34.517Z,18.40
2018-10-15T06:24:37.888Z,18.40
2018-10-15T06:25:41.279Z,18.40
2018-10-15T06:26:44.643Z,18.40
2018-10-15T06:27:48.107Z,18.40
2018-10-15T06:28:51.498Z,18.40
2018-10-15T06:29:54.880Z,18.40
2018-10-15T06:30:58.384Z,18.40
2018-10-15T06:32:01.775Z,18.40
2018-10-15T06:33:05.426Z,18.40
2018-10-15T06:34:08.849Z,18.40
2018-10-15T06:35:12.232Z,18.40
2018-10-15T06:36:15.640Z,18.40
2018-10-15T06:37:19.090Z,18.40
2018-10-15T06:38:22.485Z,18.40
2018-10-15T06:39:25.842Z,18.40
2018-10-15T06:40:29.240Z,18.40
2018-10-15T06:41:32.641Z,18.40
2018-10-15T06:42:36.722Z,18.40
2018-10-15T06:43:40.498Z,18.40
2018-10-15T06:44:43.896Z,18.40
2018-10-15T06:45:47.298Z,18.40
2018-10-15T06:46:50.683Z,18.40
2018-10-15T06:47:54.102Z,18.40
2018-10-15T06:48:57.553Z,18.40
2018-10-15T06:50:01.001Z,18.40
2018-10-15T06:51:05.003Z,18.40
2018-10-15T06:52:08.585Z,18.40
2018-10-15T06:53:11.972Z,18.40
2018-10-15T06:54:15.446Z,18.40
2018-10-15T06:55:18.889Z,18.40
2018-10-15T06:56:22.305Z,18.40
2018-10-15T06:57:25.707Z,18.40
2018-10-15T06:58:29.203Z,18.40
2018-10-15T06:59:32.626Z,18.50
2018-10-15T07:00:36.073Z,18.50
2018-10-15T07:01:40.090Z,18.50
2018-10-15T07:02:43.476Z,18.50
2018-10-15T07:03:46.863Z,18.50
2018-10-15T07:04:50.301Z,18.50
2018-10-15T07:05:53.845Z,18.50
2018-10-15T07:06:57.253Z,18.50
2018-10-15T07:08:00.694Z,18.50
2018-10-15T07:09:05.750Z,18.50
2018-10-15T07:10:09.785Z,18.50
2018-10-15T07:11:13.359Z,18.50
2018-10-15T07:12:16.859Z,18.50
2018-10-15T07:13:20.396Z,18.50
2018-10-15T07:14:23.727Z,18.60
2018-10-15T07:15:27.048Z,18.60
2018-10-15T07:16:30.552Z,18.60
2018-10-15T07:17:34.168Z,18.60
2018-10-15T07:18:37.608Z,18.60
2018-10-15T07:19:41.048Z,18.60
2018-10-15T07:20:44.829Z,18.60
2018-10-15T07:21:50.209Z,18.60
2018-10-15T07:22:53.607Z,18.60
2018-10-15T07:23:56.979Z,18.60
2018-10-15T07:25:11.569Z,18.60
2018-10-15T07:26:15.064Z,18.60
2018-10-15T07:27:18.500Z,18.60
2018-10-15T07:28:21.957Z,18.70
2018-10-15T07:29:25.318Z,18.60
2018-10-15T07:30:30.565Z,18.60
2018-10-15T07:31:33.984Z,18.70
2018-10-15T07:32:37.366Z,18.70
2018-10-15T07:33:40.772Z,18.70
2018-10-15T07:34:44.433Z,18.70
2018-10-15T07:35:47.809Z,18.70
2018-10-15T07:36:51.440Z,18.70
2018-10-15T07:37:54.840Z,18.70
2018-10-15T07:38:58.335Z,18.70
2018-10-15T07:40:01.844Z,18.70
2018-10-15T07:41:05.350Z,18.70
2018-10-15T07:42:08.834Z,18.70
2018-10-15T07:43:12.174Z,18.70
2018-10-15T07:44:15.649Z,18.70
2018-10-15T07:45:19.036Z,18.80
2018-10-15T07:46:23.310Z,18.80
2018-10-15T07:47:26.566Z,18.70
2018-10-15T07:48:29.961Z,18.80
2018-10-15T07:49:33.382Z,18.80
2018-10-15T07:50:36.824Z,18.80
2018-10-15T07:51:40.210Z,18.80
2018-10-15T07:52:44.293Z,18.80
2018-10-15T07:53:47.733Z,18.80
2018-10-15T07:54:51.379Z,18.80
2018-10-15T07:55:54.796Z,18.80
2018-10-15T07:56:58.181Z,18.90
2018-10-15T07:58:01.610Z,18.90
2018-10-15T07:59:05.284Z,18.90
2018-10-15T08:00:15.108Z,18.90
2018-10-15T08:01:18.484Z,18.90
2018-10-15T08:02:21.925Z,18.90
2018-10-15T08:03:25.295Z,18.90
2018-10-15T08:04:28.733Z,18.90
2018-10-15T08:05:32.160Z,18.90
2018-10-15T08:06:35.523Z,18.90
2018-10-15T08:07:39.079Z,19.00
2018-10-15T08:08:42.625Z,19.00
2018-10-15T08:09:45.984Z,19.00
2018-10-15T08:10:49.373Z,19.00
2018-10-15T08:11:52.779Z,19.00
2018-10-15T08:12:56.166Z,19.00
2018-10-15T08:13:59.619Z,19.00
2018-10-15T08:15:03.047Z,19.00
2018-10-15T08:16:06.445Z,19.00
2018-10-15T08:17:10.455Z,19.00
2018-10-15T08:18:13.844Z,19.10
2018-10-15T08:19:17.212Z,19.00
2018-10-15T08:20:20.955Z,19.10
2018-10-15T08:21:24.386Z,19.10
2018-10-15T08:22:27.823Z,19.00
2018-10-15T08:23:31.425Z,19.10
2018-10-15T08:24:34.799Z,19.00
2018-10-15T08:25:38.192Z,19.10
2018-10-15T08:26:41.647Z,19.10
2018-10-15T08:27:45.366Z,19.10
2018-10-15T08:28:48.768Z,19.10
2018-10-15T08:29:52.168Z,19.10
2018-10-15T08:30:55.597Z,19.10
2018-10-15T08:31:59.078Z,19.10
2018-10-15T08:33:02.773Z,19.10
2018-10-15T08:34:06.158Z,19.20
2018-10-15T08:35:09.560Z,19.20
2018-10-15T08:36:13.001Z,19.20
2018-10-15T08:37:16.404Z,19.20
2018-10-15T08:38:19.795Z,19.20
2018-10-15T08:39:23.168Z,19.20
2018-10-15T08:40:26.564Z,19.20
2018-10-15T08:41:30.109Z,19.20
2018-10-15T08:42:33.453Z,19.30
2018-10-15T08:43:36.825Z,19.30
2018-10-15T08:44:40.208Z,19.30
2018-10-15T08:45:43.617Z,19.30
2018-10-15T08:46:47.028Z,19.30
2018-10-15T08:47:50.833Z,19.40
2018-10-15T08:48:54.179Z,19.40
2018-10-15T08:49:57.597Z,19.40
2018-10-15T08:51:01.070Z,19.40
2018-10-15T08:52:04.412Z,19.40
2018-10-15T08:53:07.770Z,19.40
2018-10-15T08:54:11.186Z,19.40
2018-10-15T08:55:14.685Z,19.40
2018-10-15T08:56:18.085Z,19.40
2018-10-15T08:57:21.480Z,19.50
2018-10-15T08:58:24.849Z,19.40
2018-10-15T08:59:28.244Z,19.50
2018-10-15T09:00:31.699Z,19.50
2018-10-15T09:01:35.344Z,19.50
2018-10-15T09:02:38.947Z,19.50
2018-10-15T09:03:42.344Z,19.50
2018-10-15T09:04:45.799Z,19.50
2018-10-15T09:05:49.153Z,19.50
2018-10-15T09:06:52.661Z,19.50
2018-10-15T09:07:56.286Z,19.60
2018-10-15T09:08:59.669Z,19.60
2018-10-15T09:10:02.922Z,19.60
2018-10-15T09:11:06.387Z,19.60
2018-10-15T09:12:09.744Z,19.60
2018-10-15T09:13:13.273Z,19.70
2018-10-15T09:14:16.608Z,19.60
2018-10-15T09:15:23.821Z,19.70
2018-10-15T09:16:27.224Z,19.70
2018-10-15T09:17:30.674Z,19.70
2018-10-15T09:18:34.136Z,19.70
2018-10-15T09:19:37.528Z,19.70
2018-10-15T09:20:40.926Z,19.70
2018-10-15T09:21:44.418Z,19.70
2018-10-15T09:22:47.905Z,19.70
2018-10-15T09:23:51.357Z,19.70
2018-10-15T09:24:54.771Z,19.70
2018-10-15T09:25:58.246Z,19.70
2018-10-15T09:27:01.627Z,19.80
2018-10-15T09:28:05.379Z,19.80
2018-10-15T09:29:08.797Z,19.80
2018-10-15T09:30:14.319Z,19.80
2018-10-15T09:31:17.771Z,19.80
2018-10-15T09:32:21.368Z,19.90
2018-10-15T09:33:25.011Z,19.90
2018-10-15T09:34:28.426Z,19.90
2018-10-15T09:35:31.816Z,19.90
2018-10-15T09:36:35.192Z,19.90
2018-10-15T09:37:39.384Z,20.00
2018-10-15T09:38:42.951Z,19.90
2018-10-15T09:39:46.341Z,19.90
2018-10-15T09:40:49.777Z,20.00
2018-10-15T09:41:53.144Z,20.00
2018-10-15T09:42:56.672Z,20.00
2018-10-15T09:44:00.070Z,20.00
2018-10-15T09:45:03.605Z,20.00
2018-10-15T09:46:06.954Z,20.00
2018-10-15T09:47:10.400Z,20.00
2018-10-15T09:48:13.804Z,20.10
2018-10-15T09:49:17.248Z,20.10
2018-10-15T09:50:20.733Z,20.10
2018-10-15T09:51:24.242Z,20.10
2018-10-15T09:52:27.707Z,20.10
2018-10-15T09:53:31.244Z,20.10
2018-10-15T09:54:34.624Z,20.20
2018-10-15T09:55:38.069Z,20.10
2018-10-15T09:56:41.523Z,20.20
2018-10-15T09:57:45.043Z,20.20
2018-10-15T09:58:48.491Z,20.20
2018-10-15T09:59:51.880Z,20.20
2018-10-15T10:01:00.570Z,20.20
2018-10-15T10:02:11.558Z,20.20
2018-10-15T10:03:14.933Z,20.20
2018-10-15T10:04:18.317Z,20.30
2018-10-15T10:05:21.725Z,20.30
2018-10-15T10:06:25.981Z,20.20
2018-10-15T10:07:29.488Z,20.30
2018-10-15T10:08:32.840Z,20.30
2018-10-15T10:09:36.913Z,20.30
2018-10-15T10:10:40.410Z,20.30
2018-10-15T10:11:43.773Z,20.30
2018-10-15T10:12:47.382Z,20.30
2018-10-15T10:13:50.825Z,20.30
2018-10-15T10:14:54.299Z,20.30
2018-10-15T10:15:57.657Z,20.30
2018-10-15T10:17:01.213Z,20.30
2018-10-15T10:18:04.669Z,20.30
2018-10-15T10:19:08.061Z,20.30
2018-10-15T10:20:11.667Z,20.30
2018-10-15T10:21:15.045Z,20.30
2018-10-15T10:22:18.531Z,20.30
2018-10-15T10:23:21.897Z,20.30
2018-10-15T10:24:25.518Z,20.30
2018-10-15T10:25:28.957Z,20.30
2018-10-15T10:26:32.355Z,20.30
2018-10-15T10:27:35.745Z,20.30
2018-10-15T10:28:39.409Z,20.30
2018-10-15T10:29:42.763Z,20.30
2018-10-15T10:30:46.152Z,20.30
2018-10-15T10:31:49.557Z,20.40
2018-10-15T10:32:52.998Z,20.40
2018-10-15T10:34:32.201Z,20.40
2018-10-15T10:36:12.516Z,20.40
2018-10-15T10:37:15.938Z,20.40
2018-10-15T10:38:22.269Z,20.40
2018-10-15T10:39:25.664Z,20.40
2018-10-15T10:40:29.231Z,20.50
2018-10-15T10:41:32.595Z,20.50
2018-10-15T10:42:36.396Z,20.50
2018-10-15T10:43:39.975Z,20.50
2018-10-15T10:44:43.419Z,20.50
2018-10-15T10:45:46.915Z,20.50
2018-10-15T10:46:50.439Z,20.50
2018-10-15T10:47:53.909Z,20.50
2018-10-15T10:48:57.505Z,20.50
2018-10-15T10:50:00.974Z,20.50
2018-10-15T10:51:04.437Z,20.60
2018-10-15T10:52:08.196Z,20.60
2018-10-15T10:53:11.664Z,20.60
2018-10-15T10:54:15.299Z,20.60
2018-10-15T10:55:18.788Z,20.70
2018-10-15T10:56:22.278Z,20.70
2018-10-15T10:57:25.899Z,20.70
2018-10-15T10:58:29.428Z,20.70
2018-10-15T10:59:33.080Z,20.70
2018-10-15T11:00:36.522Z,20.80
2018-10-15T11:01:39.957Z,20.70
2018-10-15T11:02:43.566Z,20.80
2018-10-15T11:03:47.067Z,20.80
2018-10-15T11:04:50.496Z,20.90
2018-10-15T11:05:53.977Z,20.90
2018-10-15T11:06:57.463Z,20.90
2018-10-15T11:08:01.112Z,20.90
2018-10-15T11:09:07.448Z,20.90
2018-10-15T11:10:10.962Z,20.90
2018-10-15T11:11:14.423Z,20.90
2018-10-15T11:12:17.981Z,20.90
2018-10-15T11:13:21.449Z,20.90
2018-10-15T11:14:24.892Z,20.90
2018-10-15T11:15:28.349Z,21.00
2018-10-15T11:16:31.997Z,20.90
2018-10-15T11:17:35.573Z,21.00
2018-10-15T11:18:39.530Z,21.00
2018-10-15T11:19:42.936Z,21.00
2018-10-15T11:20:46.452Z,21.00
2018-10-15T11:21:49.918Z,21.00
2018-10-15T11:22:53.467Z,21.00
2018-10-15T11:23:57.014Z,21.00
2018-10-15T11:25:00.529Z,21.00
2018-10-15T11:26:04.000Z,21.00
2018-10-15T11:27:07.683Z,21.00
2018-10-15T11:28:11.114Z,21.00
2018-10-15T11:29:14.609Z,21.00
2018-10-15T11:30:18.041Z,21.00
2018-10-15T11:31:21.605Z,21.00
2018-10-15T11:32:25.088Z,21.10
2018-10-15T11:33:28.468Z,21.10
2018-10-15T11:34:31.945Z,21.20
2018-10-15T11:35:35.344Z,21.10
2018-10-15T11:36:38.791Z,21.20
2018-10-15T11:37:42.272Z,21.20
2018-10-15T11:38:45.699Z,21.20
2018-10-15T11:39:49.099Z,21.20
2018-10-15T11:40:52.601Z,21.20
2018-10-15T11:41:56.045Z,21.20
2018-10-15T11:42:59.473Z,21.20
2018-10-15T11:44:02.919Z,21.20
2018-10-15T11:45:07.424Z,21.20
2018-10-15T11:46:10.938Z,21.30
2018-10-15T11:47:14.347Z,21.30
2018-10-15T11:48:17.735Z,21.30
2018-10-15T11:49:21.381Z,21.30
2018-10-15T11:50:24.851Z,21.30
2018-10-15T11:51:28.270Z,21.30
2018-10-15T11:52:31.723Z,21.30
2018-10-15T11:53:35.189Z,21.30
2018-10-15T11:54:38.538Z,21.30
2018-10-15T11:55:41.958Z,21.30
2018-10-15T11:56:45.360Z,21.30
2018-10-15T11:57:48.860Z,21.30
2018-10-15T11:58:52.294Z,21.30
2018-10-15T11:59:55.666Z,21.30
2018-10-15T12:00:59.067Z,21.40
2018-10-15T12:02:02.533Z,21.40
2018-10-15T12:03:05.907Z,21.40
2018-10-15T12:04:09.292Z,21.40
2018-10-15T12:05:12.751Z,21.40
2018-10-15T12:06:16.219Z,21.40
2018-10-15T12:07:19.629Z,21.40
2018-10-15T12:08:23.028Z,21.40
2018-10-15T12:09:26.397Z,21.40
2018-10-15T12:10:29.776Z,21.40
2018-10-15T12:11:33.176Z,21.40
2018-10-15T12:12:36.725Z,21.40
2018-10-15T12:13:40.171Z,21.50
2018-10-15T12:14:43.563Z,21.50
2018-10-15T12:15:46.955Z,21.50
2018-10-15T12:16:50.826Z,21.40
2018-10-15T12:17:54.219Z,21.50
2018-10-15T12:18:58.851Z,21.40
2018-10-15T12:20:02.321Z,21.50
2018-10-15T12:21:05.751Z,21.50
2018-10-15T12:22:10.219Z,21.50
2018-10-15T12:23:13.619Z,21.50
2018-10-15T12:24:17.042Z,21.50
2018-10-15T12:25:20.437Z,21.60
2018-10-15T12:26:23.813Z,21.50
2018-10-15T12:27:27.227Z,21.60
2018-10-15T12:28:30.623Z,21.60
2018-10-15T12:29:34.176Z,21.60
2018-10-15T12:30:37.584Z,21.70
2018-10-15T12:31:40.981Z,21.70
2018-10-15T12:32:44.393Z,21.70
2018-10-15T12:33:47.764Z,21.80
2018-10-15T12:34:51.255Z,21.70
2018-10-15T12:35:54.668Z,21.80
2018-10-15T12:36:58.070Z,21.80
2018-10-15T12:38:01.497Z,21.80
2018-10-15T12:39:07.857Z,21.80
2018-10-15T12:40:12.181Z,21.90
2018-10-15T12:41:15.589Z,21.90
2018-10-15T12:42:18.996Z,21.90
2018-10-15T12:43:22.457Z,21.90
2018-10-15T12:44:25.864Z,21.90
2018-10-15T12:45:47.496Z,21.90
2018-10-15T12:46:50.913Z,21.90
2018-10-15T12:47:54.315Z,21.90
2018-10-15T12:48:57.768Z,21.90
2018-10-15T12:50:01.153Z,22.00
2018-10-15T12:51:04.685Z,22.00
2018-10-15T12:52:08.097Z,22.00
2018-10-15T12:53:11.503Z,22.00
2018-10-15T12:54:15.033Z,22.00
2018-10-15T12:55:18.424Z,22.00
2018-10-15T12:56:21.797Z,22.00
2018-10-15T12:57:25.312Z,22.00
2018-10-15T12:58:28.772Z,22.00
2018-10-15T12:59:32.174Z,22.00
2018-10-15T13:00:35.661Z,22.00
2018-10-15T13:01:39.077Z,22.00
2018-10-15T13:02:42.472Z,22.10
2018-10-15T13:03:45.916Z,22.10
2018-10-15T13:05:00.500Z,22.20
2018-10-15T13:06:03.894Z,22.20
2018-10-15T13:07:07.295Z,22.20
2018-10-15T13:08:10.665Z,22.20
2018-10-15T13:09:14.074Z,22.20
2018-10-15T13:10:17.540Z,22.20
2018-10-15T13:11:20.936Z,22.30
2018-10-15T13:12:24.372Z,22.30
2018-10-15T13:13:28.048Z,22.30
2018-10-15T13:14:31.444Z,22.30
2018-10-15T13:15:34.876Z,22.30
2018-10-15T13:16:38.320Z,22.40
2018-10-15T13:17:41.833Z,22.40
2018-10-15T13:18:45.239Z,22.50
2018-10-15T13:19:48.612Z,22.50
2018-10-15T13:20:52.042Z,22.50
2018-10-15T13:21:55.461Z,22.50
2018-10-15T13:22:58.840Z,22.60
2018-10-15T13:24:02.661Z,22.60
2018-10-15T13:25:06.848Z,22.60
2018-10-15T13:26:10.239Z,22.60
2018-10-15T13:27:13.700Z,22.70
2018-10-15T13:28:17.118Z,22.70
2018-10-15T13:29:20.523Z,22.70
2018-10-15T13:30:23.912Z,22.70
2018-10-15T13:31:27.356Z,22.80
2018-10-15T13:32:30.807Z,22.80
2018-10-15T13:33:34.259Z,22.80
2018-10-15T13:34:37.676Z,22.80
2018-10-15T13:35:41.120Z,22.90
2018-10-15T13:36:44.586Z,22.90
2018-10-15T13:37:48.108Z,22.90
2018-10-15T13:38:51.531Z,22.90
2018-10-15T13:39:54.913Z,22.90